sensor_id;sensor_type;location;lat;lon;timestamp;P1;durP1;ratioP1;P2;durP2;ratioP2
20365;SDS011;10341;49.894;8.822;2023-02-28T00:00:55;3.28;;;1.98;;
20365;SDS011;10341;49.894;8.822;2023-02-28T00:06:14;2.42;;;1.98;;
20365;SDS011;10341;49.894;8.822;2023-02-28T00:11:34;3.53;;;2.20;;
20365;SDS011;10341;49.894;8.822;2023-02-28T00:16:56;3.47;;;2.03;;
20365;SDS011;10341;49.894;8.822;2023-02-28T00:22:16;4.28;;;2.30;;
20365;SDS011;10341;49.894;8.822;2023-02-28T00:27:38;4.30;;;2.13;;
20365;SDS011;10341;49.894;8.822;2023-02-28T00:32:57;4.25;;;2.63;;
20365;SDS011;10341;49.894;8.822;2023-02-28T00:38:18;3.63;;;2.30;;
20365;SDS011;10341;49.894;8.822;2023-02-28T00:43:38;3.75;;;2.30;;
20365;SDS011;10341;49.894;8.822;2023-02-28T00:48:58;5.40;;;2.03;;
20365;SDS011;10341;49.894;8.822;2023-02-28T00:54:17;3.88;;;2.30;;
20365;SDS011;10341;49.894;8.822;2023-02-28T00:59:39;5.13;;;2.25;;
20365;SDS011;10341;49.894;8.822;2023-02-28T01:04:59;3.58;;;2.08;;
20365;SDS011;10341;49.894;8.822;2023-02-28T01:10:22;2.80;;;1.95;;
20365;SDS011;10341;49.894;8.822;2023-02-28T01:15:43;4.22;;;1.88;;
20365;SDS011;10341;49.894;8.822;2023-02-28T01:21:11;2.67;;;2.03;;
20365;SDS011;10341;49.894;8.822;2023-02-28T01:26:33;2.92;;;1.90;;
20365;SDS011;10341;49.894;8.822;2023-02-28T01:31:52;4.85;;;2.30;;
20365;SDS011;10341;49.894;8.822;2023-02-28T01:37:12;2.58;;;2.08;;
20365;SDS011;10341;49.894;8.822;2023-02-28T01:42:36;4.35;;;2.38;;
20365;SDS011;10341;49.894;8.822;2023-02-28T01:47:58;3.42;;;2.08;;
20365;SDS011;10341;49.894;8.822;2023-02-28T01:53:24;3.30;;;2.22;;
20365;SDS011;10341;49.894;8.822;2023-02-28T01:58:51;4.57;;;2.33;;
20365;SDS011;10341;49.894;8.822;2023-02-28T02:04:11;4.10;;;2.58;;
20365;SDS011;10341;49.894;8.822;2023-02-28T02:09:31;4.13;;;2.40;;
20365;SDS011;10341;49.894;8.822;2023-02-28T02:15:01;3.58;;;2.05;;
20365;SDS011;10341;49.894;8.822;2023-02-28T02:20:51;3.38;;;2.13;;
20365;SDS011;10341;49.894;8.822;2023-02-28T02:38:08;4.32;;;2.50;;
20365;SDS011;10341;49.894;8.822;2023-02-28T02:43:46;3.55;;;1.90;;
20365;SDS011;10341;49.894;8.822;2023-02-28T02:49:16;4.20;;;2.50;;
20365;SDS011;10341;49.894;8.822;2023-02-28T02:54:43;5.93;;;2.88;;
20365;SDS011;10341;49.894;8.822;2023-02-28T03:00:05;3.13;;;2.45;;
20365;SDS011;10341;49.894;8.822;2023-02-28T03:05:35;4.13;;;2.50;;
20365;SDS011;10341;49.894;8.822;2023-02-28T03:11:04;3.78;;;2.60;;
20365;SDS011;10341;49.894;8.822;2023-02-28T03:27:33;3.70;;;2.45;;
20365;SDS011;10341;49.894;8.822;2023-02-28T03:33:48;5.80;;;2.58;;
20365;SDS011;10341;49.894;8.822;2023-02-28T03:39:06;6.57;;;2.90;;
20365;SDS011;10341;49.894;8.822;2023-02-28T03:44:29;4.78;;;2.58;;
20365;SDS011;10341;49.894;8.822;2023-02-28T03:49:55;3.88;;;2.90;;
20365;SDS011;10341;49.894;8.822;2023-02-28T03:55:19;5.40;;;2.70;;
20365;SDS011;10341;49.894;8.822;2023-02-28T04:00:40;4.25;;;2.53;;
20365;SDS011;10341;49.894;8.822;2023-02-28T04:06:12;4.85;;;2.70;;
20365;SDS011;10341;49.894;8.822;2023-02-28T04:11:44;6.68;;;2.80;;
20365;SDS011;10341;49.894;8.822;2023-02-28T04:17:07;4.18;;;2.95;;
20365;SDS011;10341;49.894;8.822;2023-02-28T04:22:27;4.97;;;2.72;;
20365;SDS011;10341;49.894;8.822;2023-02-28T04:27:46;4.78;;;2.75;;
20365;SDS011;10341;49.894;8.822;2023-02-28T04:33:05;6.68;;;3.03;;
20365;SDS011;10341;49.894;8.822;2023-02-28T04:38:25;7.28;;;3.00;;
20365;SDS011;10341;49.894;8.822;2023-02-28T04:49:03;4.55;;;2.80;;
20365;SDS011;10341;49.894;8.822;2023-02-28T04:54:22;5.13;;;3.10;;
20365;SDS011;10341;49.894;8.822;2023-02-28T04:59:42;5.60;;;3.45;;
20365;SDS011;10341;49.894;8.822;2023-02-28T05:05:01;5.07;;;3.22;;
20365;SDS011;10341;49.894;8.822;2023-02-28T05:10:22;5.75;;;3.25;;
20365;SDS011;10341;49.894;8.822;2023-02-28T05:15:41;5.78;;;3.55;;
20365;SDS011;10341;49.894;8.822;2023-02-28T05:21:02;7.43;;;4.57;;
20365;SDS011;10341;49.894;8.822;2023-02-28T05:26:21;6.82;;;4.45;;
20365;SDS011;10341;49.894;8.822;2023-02-28T05:31:41;6.22;;;4.43;;
20365;SDS011;10341;49.894;8.822;2023-02-28T05:42:19;6.45;;;3.92;;
20365;SDS011;10341;49.894;8.822;2023-02-28T05:47:39;6.32;;;3.78;;
20365;SDS011;10341;49.894;8.822;2023-02-28T05:52:58;6.88;;;3.60;;
20365;SDS011;10341;49.894;8.822;2023-02-28T05:58:18;6.45;;;3.58;;
20365;SDS011;10341;49.894;8.822;2023-02-28T06:03:37;6.80;;;3.53;;
20365;SDS011;10341;49.894;8.822;2023-02-28T06:14:17;5.35;;;3.45;;
20365;SDS011;10341;49.894;8.822;2023-02-28T06:19:38;5.97;;;3.80;;
20365;SDS011;10341;49.894;8.822;2023-02-28T06:24:57;5.00;;;3.38;;
20365;SDS011;10341;49.894;8.822;2023-02-28T06:30:17;5.63;;;3.45;;
20365;SDS011;10341;49.894;8.822;2023-02-28T06:35:36;5.93;;;3.08;;
20365;SDS011;10341;49.894;8.822;2023-02-28T06:40:57;5.85;;;3.45;;
20365;SDS011;10341;49.894;8.822;2023-02-28T06:46:17;5.07;;;3.25;;
20365;SDS011;10341;49.894;8.822;2023-02-28T06:51:38;7.00;;;4.07;;
20365;SDS011;10341;49.894;8.822;2023-02-28T06:57:00;5.10;;;3.33;;
20365;SDS011;10341;49.894;8.822;2023-02-28T07:02:20;8.43;;;3.80;;
20365;SDS011;10341;49.894;8.822;2023-02-28T07:07:39;7.43;;;4.00;;
20365;SDS011;10341;49.894;8.822;2023-02-28T07:13:03;8.50;;;4.50;;
20365;SDS011;10341;49.894;8.822;2023-02-28T07:18:22;8.93;;;4.50;;
20365;SDS011;10341;49.894;8.822;2023-02-28T07:23:42;7.03;;;3.95;;
20365;SDS011;10341;49.894;8.822;2023-02-28T07:29:02;7.40;;;3.60;;
20365;SDS011;10341;49.894;8.822;2023-02-28T07:34:22;4.47;;;3.20;;
20365;SDS011;10341;49.894;8.822;2023-02-28T07:39:41;4.18;;;2.72;;
20365;SDS011;10341;49.894;8.822;2023-02-28T07:45:01;6.88;;;2.75;;
20365;SDS011;10341;49.894;8.822;2023-02-28T07:50:20;4.97;;;2.90;;
20365;SDS011;10341;49.894;8.822;2023-02-28T08:01:06;5.75;;;3.10;;
20365;SDS011;10341;49.894;8.822;2023-02-28T08:06:26;4.15;;;2.95;;
20365;SDS011;10341;49.894;8.822;2023-02-28T08:11:46;4.35;;;3.25;;
20365;SDS011;10341;49.894;8.822;2023-02-28T08:17:05;5.32;;;2.60;;
20365;SDS011;10341;49.894;8.822;2023-02-28T08:22:25;3.70;;;2.70;;
20365;SDS011;10341;49.894;8.822;2023-02-28T08:27:44;5.03;;;2.80;;
20365;SDS011;10341;49.894;8.822;2023-02-28T08:33:04;5.28;;;2.63;;
20365;SDS011;10341;49.894;8.822;2023-02-28T08:38:24;4.45;;;3.13;;
20365;SDS011;10341;49.894;8.822;2023-02-28T08:43:43;5.05;;;2.90;;
20365;SDS011;10341;49.894;8.822;2023-02-28T08:49:03;4.28;;;2.80;;
20365;SDS011;10341;49.894;8.822;2023-02-28T08:54:23;4.60;;;3.40;;
20365;SDS011;10341;49.894;8.822;2023-02-28T09:05:02;4.88;;;3.30;;
20365;SDS011;10341;49.894;8.822;2023-02-28T09:10:22;5.75;;;3.30;;
20365;SDS011;10341;49.894;8.822;2023-02-28T09:15:41;4.88;;;3.25;;
20365;SDS011;10341;49.894;8.822;2023-02-28T09:21:02;5.07;;;3.45;;
20365;SDS011;10341;49.894;8.822;2023-02-28T09:26:26;5.07;;;3.50;;
20365;SDS011;10341;49.894;8.822;2023-02-28T09:31:46;7.53;;;4.60;;
20365;SDS011;10341;49.894;8.822;2023-02-28T09:37:05;5.47;;;3.87;;
20365;SDS011;10341;49.894;8.822;2023-02-28T09:42:30;4.72;;;3.70;;
20365;SDS011;10341;49.894;8.822;2023-02-28T09:47:52;4.75;;;3.70;;
20365;SDS011;10341;49.894;8.822;2023-02-28T09:53:31;5.70;;;3.88;;
20365;SDS011;10341;49.894;8.822;2023-02-28T09:58:57;5.43;;;3.97;;
20365;SDS011;10341;49.894;8.822;2023-02-28T10:10:18;5.60;;;3.67;;
20365;SDS011;10341;49.894;8.822;2023-02-28T10:15:58;5.07;;;3.90;;
20365;SDS011;10341;49.894;8.822;2023-02-28T10:26:47;5.35;;;4.00;;
20365;SDS011;10341;49.894;8.822;2023-02-28T10:32:08;5.13;;;3.60;;
20365;SDS011;10341;49.894;8.822;2023-02-28T10:37:32;4.50;;;3.38;;
20365;SDS011;10341;49.894;8.822;2023-02-28T10:43:01;5.10;;;3.58;;
20365;SDS011;10341;49.894;8.822;2023-02-28T10:48:36;4.93;;;4.13;;
20365;SDS011;10341;49.894;8.822;2023-02-28T11:00:50;4.60;;;3.97;;
20365;SDS011;10341;49.894;8.822;2023-02-28T11:06:18;6.38;;;4.40;;
20365;SDS011;10341;49.894;8.822;2023-02-28T11:11:44;6.03;;;4.18;;
20365;SDS011;10341;49.894;8.822;2023-02-28T11:17:19;5.50;;;3.80;;
20365;SDS011;10341;49.894;8.822;2023-02-28T11:22:43;5.55;;;4.07;;
20365;SDS011;10341;49.894;8.822;2023-02-28T11:28:05;5.78;;;4.05;;
20365;SDS011;10341;49.894;8.822;2023-02-28T11:39:10;5.32;;;4.00;;
20365;SDS011;10341;49.894;8.822;2023-02-28T11:56:00;5.78;;;3.88;;
20365;SDS011;10341;49.894;8.822;2023-02-28T12:18:15;6.72;;;4.90;;
20365;SDS011;10341;49.894;8.822;2023-02-28T12:24:01;6.15;;;4.40;;
20365;SDS011;10341;49.894;8.822;2023-02-28T12:51:38;6.43;;;4.63;;
20365;SDS011;10341;49.894;8.822;2023-02-28T13:14:26;5.43;;;4.45;;
20365;SDS011;10341;49.894;8.822;2023-02-28T13:52:18;6.40;;;4.53;;
20365;SDS011;10341;49.894;8.822;2023-02-28T13:57:58;6.63;;;4.45;;
20365;SDS011;10341;49.894;8.822;2023-02-28T14:09:19;6.30;;;4.57;;
20365;SDS011;10341;49.894;8.822;2023-02-28T14:20:04;6.47;;;5.05;;
20365;SDS011;10341;49.894;8.822;2023-02-28T14:25:35;6.75;;;4.80;;
20365;SDS011;10341;49.894;8.822;2023-02-28T14:31:32;6.38;;;4.55;;
20365;SDS011;10341;49.894;8.822;2023-02-28T14:36:57;5.82;;;4.43;;
20365;SDS011;10341;49.894;8.822;2023-02-28T14:42:54;7.13;;;4.45;;
20365;SDS011;10341;49.894;8.822;2023-02-28T14:48:15;7.40;;;5.20;;
20365;SDS011;10341;49.894;8.822;2023-02-28T14:53:36;6.95;;;4.93;;
20365;SDS011;10341;49.894;8.822;2023-02-28T14:58:56;6.30;;;4.82;;
20365;SDS011;10341;49.894;8.822;2023-02-28T15:04:20;7.10;;;5.33;;
20365;SDS011;10341;49.894;8.822;2023-02-28T15:09:43;8.02;;;5.53;;
20365;SDS011;10341;49.894;8.822;2023-02-28T15:15:03;7.65;;;4.90;;
20365;SDS011;10341;49.894;8.822;2023-02-28T15:25:43;7.32;;;4.13;;
20365;SDS011;10341;49.894;8.822;2023-02-28T15:31:03;7.40;;;4.63;;
20365;SDS011;10341;49.894;8.822;2023-02-28T15:36:38;8.25;;;5.13;;
20365;SDS011;10341;49.894;8.822;2023-02-28T15:47:38;8.20;;;4.78;;
20365;SDS011;10341;49.894;8.822;2023-02-28T15:52:58;7.78;;;5.82;;
20365;SDS011;10341;49.894;8.822;2023-02-28T15:58:22;8.00;;;5.22;;
20365;SDS011;10341;49.894;8.822;2023-02-28T16:03:44;8.48;;;5.05;;
20365;SDS011;10341;49.894;8.822;2023-02-28T16:09:16;7.75;;;4.88;;
20365;SDS011;10341;49.894;8.822;2023-02-28T16:14:36;8.60;;;4.90;;
20365;SDS011;10341;49.894;8.822;2023-02-28T16:19:57;9.52;;;5.00;;
20365;SDS011;10341;49.894;8.822;2023-02-28T16:25:17;12.40;;;6.63;;
20365;SDS011;10341;49.894;8.822;2023-02-28T16:30:39;9.93;;;5.93;;
20365;SDS011;10341;49.894;8.822;2023-02-28T16:35:59;11.40;;;6.82;;
20365;SDS011;10341;49.894;8.822;2023-02-28T16:41:20;8.65;;;5.38;;
20365;SDS011;10341;49.894;8.822;2023-02-28T16:46:44;11.07;;;7.28;;
20365;SDS011;10341;49.894;8.822;2023-02-28T16:52:03;9.97;;;6.90;;
20365;SDS011;10341;49.894;8.822;2023-02-28T16:57:23;9.48;;;5.50;;
20365;SDS011;10341;49.894;8.822;2023-02-28T17:02:42;8.63;;;5.68;;
20365;SDS011;10341;49.894;8.822;2023-02-28T17:08:02;11.80;;;7.40;;
20365;SDS011;10341;49.894;8.822;2023-02-28T17:13:21;10.18;;;6.35;;
20365;SDS011;10341;49.894;8.822;2023-02-28T17:18:41;8.43;;;5.38;;
20365;SDS011;10341;49.894;8.822;2023-02-28T17:24:01;9.55;;;5.95;;
20365;SDS011;10341;49.894;8.822;2023-02-28T17:29:21;10.65;;;6.32;;
20365;SDS011;10341;49.894;8.822;2023-02-28T17:34:40;10.63;;;6.50;;
20365;SDS011;10341;49.894;8.822;2023-02-28T17:40:00;12.73;;;7.03;;
20365;SDS011;10341;49.894;8.822;2023-02-28T17:45:20;15.63;;;7.53;;
20365;SDS011;10341;49.894;8.822;2023-02-28T17:50:39;17.48;;;9.20;;
20365;SDS011;10341;49.894;8.822;2023-02-28T17:55:59;20.85;;;10.48;;
20365;SDS011;10341;49.894;8.822;2023-02-28T18:01:18;24.35;;;11.90;;
20365;SDS011;10341;49.894;8.822;2023-02-28T18:06:43;21.33;;;11.93;;
20365;SDS011;10341;49.894;8.822;2023-02-28T18:12:06;18.35;;;10.15;;
20365;SDS011;10341;49.894;8.822;2023-02-28T18:17:27;15.88;;;9.18;;
20365;SDS011;10341;49.894;8.822;2023-02-28T18:22:46;20.63;;;12.05;;
20365;SDS011;10341;49.894;8.822;2023-02-28T18:28:06;34.38;;;16.23;;
20365;SDS011;10341;49.894;8.822;2023-02-28T18:38:45;18.05;;;9.45;;
20365;SDS011;10341;49.894;8.822;2023-02-28T18:44:06;16.50;;;7.78;;
20365;SDS011;10341;49.894;8.822;2023-02-28T18:49:25;16.02;;;8.45;;
20365;SDS011;10341;49.894;8.822;2023-02-28T18:54:45;14.80;;;7.97;;
20365;SDS011;10341;49.894;8.822;2023-02-28T19:05:25;15.77;;;7.15;;
20365;SDS011;10341;49.894;8.822;2023-02-28T19:10:46;12.25;;;6.32;;
20365;SDS011;10341;49.894;8.822;2023-02-28T19:21:26;10.13;;;6.00;;
20365;SDS011;10341;49.894;8.822;2023-02-28T19:26:48;12.27;;;6.68;;
20365;SDS011;10341;49.894;8.822;2023-02-28T19:32:08;12.75;;;7.28;;
20365;SDS011;10341;49.894;8.822;2023-02-28T19:37:28;14.40;;;7.72;;
20365;SDS011;10341;49.894;8.822;2023-02-28T19:42:47;17.17;;;8.48;;
20365;SDS011;10341;49.894;8.822;2023-02-28T19:48:07;19.58;;;8.90;;
20365;SDS011;10341;49.894;8.822;2023-02-28T19:58:51;15.75;;;8.00;;
20365;SDS011;10341;49.894;8.822;2023-02-28T20:09:29;14.13;;;7.85;;
20365;SDS011;10341;49.894;8.822;2023-02-28T20:14:50;18.95;;;8.05;;
20365;SDS011;10341;49.894;8.822;2023-02-28T20:20:10;17.38;;;8.35;;
20365;SDS011;10341;49.894;8.822;2023-02-28T20:25:30;14.05;;;7.72;;
20365;SDS011;10341;49.894;8.822;2023-02-28T20:30:51;16.80;;;7.72;;
20365;SDS011;10341;49.894;8.822;2023-02-28T20:36:11;15.77;;;7.93;;
20365;SDS011;10341;49.894;8.822;2023-02-28T20:41:31;13.55;;;7.35;;
20365;SDS011;10341;49.894;8.822;2023-02-28T20:52:10;18.77;;;9.02;;
20365;SDS011;10341;49.894;8.822;2023-02-28T20:57:29;15.38;;;7.95;;
20365;SDS011;10341;49.894;8.822;2023-02-28T21:02:48;16.60;;;7.88;;
20365;SDS011;10341;49.894;8.822;2023-02-28T21:08:08;16.17;;;8.55;;
20365;SDS011;10341;49.894;8.822;2023-02-28T21:13:28;15.00;;;7.93;;
20365;SDS011;10341;49.894;8.822;2023-02-28T21:24:07;17.33;;;7.97;;
20365;SDS011;10341;49.894;8.822;2023-02-28T21:29:31;13.52;;;7.13;;
20365;SDS011;10341;49.894;8.822;2023-02-28T21:34:50;12.98;;;7.05;;
20365;SDS011;10341;49.894;8.822;2023-02-28T21:40:12;11.82;;;6.38;;
20365;SDS011;10341;49.894;8.822;2023-02-28T21:45:32;12.48;;;6.82;;
20365;SDS011;10341;49.894;8.822;2023-02-28T21:50:55;16.75;;;8.43;;
20365;SDS011;10341;49.894;8.822;2023-02-28T21:56:24;14.35;;;7.32;;
20365;SDS011;10341;49.894;8.822;2023-02-28T22:01:47;12.57;;;6.97;;
20365;SDS011;10341;49.894;8.822;2023-02-28T22:07:08;13.00;;;7.93;;
20365;SDS011;10341;49.894;8.822;2023-02-28T22:12:29;12.90;;;6.93;;
20365;SDS011;10341;49.894;8.822;2023-02-28T22:17:48;14.30;;;7.43;;
20365;SDS011;10341;49.894;8.822;2023-02-28T22:23:07;13.13;;;7.10;;
20365;SDS011;10341;49.894;8.822;2023-02-28T22:28:27;14.50;;;7.50;;
20365;SDS011;10341;49.894;8.822;2023-02-28T22:33:49;18.08;;;7.38;;
20365;SDS011;10341;49.894;8.822;2023-02-28T22:39:10;17.48;;;7.55;;
20365;SDS011;10341;49.894;8.822;2023-02-28T22:44:30;21.63;;;8.48;;
20365;SDS011;10341;49.894;8.822;2023-02-28T22:49:49;16.05;;;7.65;;
20365;SDS011;10341;49.894;8.822;2023-02-28T22:55:09;25.77;;;10.93;;
20365;SDS011;10341;49.894;8.822;2023-02-28T23:00:29;27.45;;;12.13;;
20365;SDS011;10341;49.894;8.822;2023-02-28T23:05:48;21.27;;;10.30;;
20365;SDS011;10341;49.894;8.822;2023-02-28T23:11:08;17.50;;;8.38;;
20365;SDS011;10341;49.894;8.822;2023-02-28T23:16:36;18.80;;;8.30;;
20365;SDS011;10341;49.894;8.822;2023-02-28T23:22:03;14.02;;;7.70;;
20365;SDS011;10341;49.894;8.822;2023-02-28T23:27:23;16.25;;;7.97;;
20365;SDS011;10341;49.894;8.822;2023-02-28T23:32:42;14.43;;;7.65;;
20365;SDS011;10341;49.894;8.822;2023-02-28T23:38:02;17.90;;;8.27;;
20365;SDS011;10341;49.894;8.822;2023-02-28T23:43:22;16.23;;;7.75;;
20365;SDS011;10341;49.894;8.822;2023-02-28T23:48:42;19.52;;;8.63;;
20365;SDS011;10341;49.894;8.822;2023-02-28T23:54:01;15.48;;;7.47;;
20365;SDS011;10341;49.894;8.822;2023-02-28T23:59:21;17.50;;;8.43;;
